Time;durP1;ratioP1;P1;durP2;ratioP2;P2;SDS_P1;SDS_P2;PMS_P1;PMS_P2;Temp;Humidity;BMP_temperature;BMP_pressure;BME280_temperature;BME280_humidity;BME280_pressure;Samples;Min_cycle;Max_cycle;Signal;HPM_P1;HPM_P2
2021/07/13 00:00:33;;;;;;;32.30;21.50;;;17.90;83.60;;;;;;4953948;28;20051;-84
2021/07/13 00:03:02;;;;;;;32.92;21.58;;;17.90;83.70;;;;;;4954096;28;20066;-86
2021/07/13 00:05:30;;;;;;;27.92;22.52;;;17.90;83.70;;;;;;4953732;28;20047;-85
2021/07/13 00:07:57;;;;;;;34.22;25.17;;;17.90;83.80;;;;;;4953830;28;20131;-85
2021/07/13 00:10:27;;;;;;;42.00;26.08;;;17.90;83.80;;;;;;4953706;28;20066;-84
2021/07/13 00:12:55;;;;;;;41.78;27.38;;;17.90;83.80;;;;;;4953860;28;20074;-86
2021/07/13 00:15:31;;;;;;;39.28;26.80;;;18.00;83.90;;;;;;4953704;28;20051;-84
2021/07/13 00:17:59;;;;;;;38.53;28.70;;;18.00;83.90;;;;;;4955666;28;20063;-86
2021/07/13 00:20:26;;;;;;;33.17;27.67;;;18.00;84.00;;;;;;4957568;29;20511;-84
2021/07/13 00:22:55;;;;;;;37.50;27.70;;;18.00;84.00;;;;;;4957671;28;20413;-84
2021/07/13 00:25:25;;;;;;;39.13;29.13;;;18.10;84.00;;;;;;4957315;29;20053;-85
2021/07/13 00:27:52;;;;;;;35.80;29.42;;;18.10;84.00;;;;;;4957458;28;20051;-83
2021/07/13 00:30:21;;;;;;;38.00;29.17;;;18.10;84.10;;;;;;4974426;28;20406;-84
2021/07/13 00:32:49;;;;;;;37.03;31.17;;;18.20;84.10;;;;;;4992363;28;20055;-85
2021/07/13 00:35:16;;;;;;;37.90;30.00;;;18.10;84.10;;;;;;4976338;28;20043;-85
2021/07/13 00:37:44;;;;;;;37.83;30.25;;;18.10;84.10;;;;;;4977761;28;20525;-84
2021/07/13 00:40:12;;;;;;;40.30;29.92;;;18.20;84.10;;;;;;4976276;28;20047;-85
2021/07/13 00:42:42;;;;;;;38.28;31.30;;;18.20;84.20;;;;;;4976815;28;20066;-86
2021/07/13 00:45:09;;;;;;;41.30;30.42;;;18.20;84.20;;;;;;4977535;28;20492;-85
2021/07/13 00:47:37;;;;;;;43.13;30.17;;;18.20;84.20;;;;;;4977217;28;20050;-84
2021/07/13 00:50:05;;;;;;;42.97;27.75;;;18.20;84.20;;;;;;4976648;28;20182;-85
2021/07/13 00:52:32;;;;;;;45.00;30.15;;;18.30;84.20;;;;;;4975902;28;20055;-87
2021/07/13 00:55:00;;;;;;;37.42;30.27;;;18.30;84.20;;;;;;4977515;28;20424;-84
2021/07/13 00:57:27;;;;;;;39.53;30.27;;;18.30;84.20;;;;;;4976158;28;20058;-85
2021/07/13 00:59:55;;;;;;;49.40;31.58;;;18.30;84.10;;;;;;4977426;28;20405;-84
2021/07/13 01:02:24;;;;;;;44.50;31.65;;;18.30;84.10;;;;;;4977343;28;20055;-86
2021/07/13 01:04:58;;;;;;;39.10;29.92;;;18.30;84.10;;;;;;4976275;28;20047;-84
2021/07/13 01:07:50;;;;;;;41.45;30.85;;;18.30;84.10;;;;;;4975932;28;20053;-85
2021/07/13 01:10:24;;;;;;;46.50;31.65;;;18.30;84.10;;;;;;4975854;28;20043;-84
2021/07/13 01:13:02;;;;;;;38.60;29.85;;;18.30;84.10;;;;;;4977362;28;20054;-84
2021/07/13 01:15:34;;;;;;;42.05;30.92;;;18.30;84.20;;;;;;4975857;28;20078;-83
2021/07/13 01:18:30;;;;;;;36.15;30.15;;;18.30;84.10;;;;;;4975941;28;20082;-84
2021/07/13 01:21:18;;;;;;;43.72;30.50;;;18.30;84.10;;;;;;4975934;28;20046;-85
2021/07/13 01:24:12;;;;;;;47.88;31.13;;;18.30;84.20;;;;;;4975466;28;20055;-85
2021/07/13 01:26:42;;;;;;;43.90;30.63;;;18.30;84.20;;;;;;4975865;28;20055;-84
2021/07/13 01:29:15;;;;;;;39.63;30.83;;;18.30;84.20;;;;;;4974387;28;20568;-83
2021/07/13 01:31:45;;;;;;;44.97;30.73;;;18.30;84.20;;;;;;4991926;28;20058;-84
2021/07/13 01:34:31;;;;;;;37.60;28.25;;;18.40;84.20;;;;;;4980450;28;20070;-87
2021/07/13 01:37:01;;;;;;;44.88;30.13;;;18.30;84.20;;;;;;4975197;28;20497;-84
2021/07/13 01:39:30;;;;;;;40.05;31.08;;;18.40;84.20;;;;;;4976508;28;20393;-83
2021/07/13 01:42:02;;;;;;;39.20;30.33;;;18.40;84.20;;;;;;4975283;28;20054;-83
2021/07/13 01:44:33;;;;;;;44.22;30.45;;;18.40;84.10;;;;;;4976475;28;20058;-86
2021/07/13 01:47:00;;;;;;;45.42;30.25;;;18.40;84.10;;;;;;4975299;28;20047;-85
2021/07/13 01:49:28;;;;;;;53.97;30.70;;;18.40;84.00;;;;;;4975576;28;20073;-85
2021/07/13 01:51:57;;;;;;;48.13;31.55;;;18.40;84.00;;;;;;4975103;28;20492;-84
2021/07/13 01:54:26;;;;;;;44.53;32.10;;;18.40;83.90;;;;;;4975258;28;20077;-84
2021/07/13 01:56:58;;;;;;;43.88;31.40;;;18.30;84.00;;;;;;4976268;28;20054;-85
2021/07/13 01:59:26;;;;;;;48.38;32.35;;;18.30;84.00;;;;;;4975002;28;20069;-85
2021/07/13 02:02:02;;;;;;;44.58;32.83;;;18.30;84.00;;;;;;4975307;28;20073;-84
2021/07/13 02:04:32;;;;;;;50.97;32.53;;;18.30;84.00;;;;;;4975037;28;20055;-86
2021/07/13 02:07:02;;;;;;;47.63;33.45;;;18.40;84.00;;;;;;4974862;28;20531;-84
2021/07/13 02:09:30;;;;;;;52.38;34.72;;;18.30;84.00;;;;;;4975061;28;20065;-84
2021/07/13 02:11:57;;;;;;;50.05;31.55;;;18.30;84.10;;;;;;4974892;28;20054;-84
2021/07/13 02:14:25;;;;;;;45.83;32.38;;;18.30;84.10;;;;;;4974840;28;20055;-85
2021/07/13 02:16:53;;;;;;;47.45;32.03;;;18.30;84.10;;;;;;4975086;28;20051;-84
2021/07/13 02:19:21;;;;;;;43.90;31.50;;;18.30;84.10;;;;;;4974873;28;20047;-86
2021/07/13 02:21:49;;;;;;;44.47;31.55;;;18.40;84.10;;;;;;4974243;28;20053;-85
2021/07/13 02:24:17;;;;;;;56.30;33.78;;;18.30;84.10;;;;;;4974846;28;20055;-85
2021/07/13 02:27:01;;;;;;;44.35;30.58;;;18.30;84.10;;;;;;4974739;28;20134;-84
2021/07/13 02:29:50;;;;;;;41.63;32.47;;;18.30;84.10;;;;;;4975785;28;20063;-85
2021/07/13 02:32:25;;;;;;;56.53;34.35;;;18.30;84.10;;;;;;4974607;28;20082;-84
2021/07/13 02:34:54;;;;;;;50.53;33.17;;;18.30;84.10;;;;;;4973863;28;20082;-85
2021/07/13 02:37:23;;;;;;;45.47;35.05;;;18.30;84.10;;;;;;4990684;28;20134;-84
2021/07/13 02:39:51;;;;;;;54.13;34.78;;;18.30;84.10;;;;;;4983987;28;20053;-86
2021/07/13 02:42:18;;;;;;;64.57;37.28;;;18.30;84.10;;;;;;4974395;28;20061;-86
2021/07/13 02:44:47;;;;;;;50.30;33.28;;;18.30;84.00;;;;;;4975080;28;20501;-83
2021/07/13 02:47:15;;;;;;;53.58;34.25;;;18.30;84.00;;;;;;4973821;28;20055;-85
2021/07/13 02:49:47;;;;;;;58.95;35.13;;;18.30;84.00;;;;;;4974136;28;20065;-84
2021/07/13 02:52:27;;;;;;;46.25;33.42;;;18.30;84.00;;;;;;4974469;28;20496;-85
2021/07/13 02:55:03;;;;;;;47.47;33.97;;;18.30;83.90;;;;;;4973946;28;20146;-82
2021/07/13 02:57:31;;;;;;;45.45;31.80;;;18.30;84.00;;;;;;4973877;28;20059;-86
2021/07/13 02:59:59;;;;;;;46.20;32.08;;;18.30;84.00;;;;;;4974032;28;20428;-84
2021/07/13 03:02:27;;;;;;;41.88;32.72;;;18.20;84.00;;;;;;4973848;28;20055;-86
2021/07/13 03:04:55;;;;;;;47.88;32.33;;;18.30;84.00;;;;;;4974001;28;20074;-85
2021/07/13 03:07:23;;;;;;;49.85;33.58;;;18.20;84.00;;;;;;4973798;28;20055;-85
2021/07/13 03:09:50;;;;;;;61.15;33.40;;;18.30;84.00;;;;;;4973732;28;20057;-85
2021/07/13 03:12:18;;;;;;;46.50;30.27;;;18.20;83.90;;;;;;4973747;28;20141;-86
2021/07/13 03:14:47;;;;;;;46.50;32.17;;;18.20;83.90;;;;;;4973552;28;20058;-85
2021/07/13 03:17:16;;;;;;;43.03;29.83;;;18.20;83.90;;;;;;4973858;28;20050;-85
2021/07/13 03:19:47;;;;;;;45.78;29.33;;;18.20;83.90;;;;;;4974721;28;20051;-84
2021/07/13 03:22:19;;;;;;;34.28;26.83;;;18.20;83.80;;;;;;4973682;28;20086;-86
2021/07/13 03:24:48;;;;;;;43.47;28.10;;;18.20;83.80;;;;;;4973492;28;20131;-85
2021/07/13 03:27:18;;;;;;;39.97;27.92;;;18.20;83.80;;;;;;4973624;28;20060;-86
2021/07/13 03:29:47;;;;;;;48.78;27.70;;;18.20;83.70;;;;;;4973386;28;20527;-85
2021/07/13 03:32:16;;;;;;;46.55;29.92;;;18.20;83.70;;;;;;4973589;28;20067;-86
2021/07/13 03:34:45;;;;;;;45.83;29.00;;;18.10;83.70;;;;;;4972763;28;20054;-86
2021/07/13 03:37:12;;;;;;;52.15;29.52;;;18.10;83.70;;;;;;4973662;28;20138;-85
2021/07/13 03:39:41;;;;;;;50.33;30.50;;;18.10;83.70;;;;;;4974459;28;20081;-86
2021/07/13 03:42:08;;;;;;;46.08;29.73;;;18.10;83.70;;;;;;4973683;28;20055;-84
2021/07/13 03:44:35;;;;;;;50.92;31.35;;;18.10;83.70;;;;;;4973061;28;20138;-85
2021/07/13 03:47:03;;;;;;;52.50;31.10;;;18.00;83.70;;;;;;4973072;28;20572;-84
2021/07/13 03:49:31;;;;;;;48.83;30.45;;;18.00;83.60;;;;;;4973103;28;20133;-84
2021/07/13 03:51:58;;;;;;;56.08;32.63;;;18.00;83.60;;;;;;4973007;28;20082;-85
2021/07/13 03:54:25;;;;;;;59.28;32.08;;;18.00;83.60;;;;;;4973308;28;20059;-83
2021/07/13 03:56:52;;;;;;;50.83;33.03;;;17.90;83.60;;;;;;4972993;28;20051;-85
2021/07/13 03:59:19;;;;;;;59.38;31.85;;;17.90;83.60;;;;;;4973463;28;20065;-86
2021/07/13 04:01:46;;;;;;;57.80;31.50;;;17.90;83.60;;;;;;4972916;28;20125;-85
2021/07/13 04:04:14;;;;;;;50.05;32.65;;;17.90;83.70;;;;;;4973143;28;20078;-86
2021/07/13 04:06:41;;;;;;;64.38;32.35;;;17.90;83.70;;;;;;4974487;28;20535;-84
2021/07/13 04:09:09;;;;;;;54.00;32.22;;;17.90;83.70;;;;;;4973369;28;20051;-86
2021/07/13 04:11:36;;;;;;;52.83;32.40;;;17.90;83.70;;;;;;4973212;28;20129;-84
2021/07/13 04:14:05;;;;;;;56.40;33.55;;;17.90;83.70;;;;;;4973044;28;20046;-86
2021/07/13 04:16:33;;;;;;;59.75;34.85;;;17.90;83.80;;;;;;4974250;28;20042;-87
2021/07/13 04:19:01;;;;;;;52.72;33.97;;;17.90;83.80;;;;;;4972928;28;20079;-86
2021/07/13 04:21:28;;;;;;;59.25;35.22;;;17.90;83.80;;;;;;4973199;28;20520;-86
2021/07/13 04:23:55;;;;;;;58.90;34.45;;;17.90;83.80;;;;;;4972901;28;20137;-84
2021/07/13 04:26:24;;;;;;;64.28;36.83;;;17.90;83.80;;;;;;4972899;28;20408;-85
2021/07/13 04:28:51;;;;;;;56.58;35.53;;;17.90;83.90;;;;;;4973142;28;20129;-84
2021/07/13 04:31:18;;;;;;;64.68;37.85;;;17.90;83.90;;;;;;4972546;28;20413;-84
2021/07/13 04:33:47;;;;;;;60.47;36.50;;;17.90;84.00;;;;;;4972398;28;20059;-84
2021/07/13 04:36:14;;;;;;;72.57;40.25;;;17.80;84.00;;;;;;4972717;28;20047;-84
2021/07/13 04:38:41;;;;;;;59.88;37.47;;;17.80;84.00;;;;;;4972735;28;20046;-86
2021/07/13 04:41:09;;;;;;;72.18;39.08;;;17.90;84.10;;;;;;4973036;28;20054;-85
2021/07/13 04:43:36;;;;;;;73.22;40.00;;;17.90;84.10;;;;;;4973393;28;20061;-86
2021/07/13 04:46:03;;;;;;;79.93;42.60;;;17.90;84.10;;;;;;4973437;28;20047;-84
2021/07/13 04:48:30;;;;;;;79.35;42.80;;;17.90;84.10;;;;;;4972657;28;20047;-87
2021/07/13 04:50:57;;;;;;;82.35;42.97;;;17.90;84.20;;;;;;4973006;28;20074;-84
2021/07/13 04:53:24;;;;;;;83.70;45.38;;;17.90;84.20;;;;;;4972710;28;20047;-87
2021/07/13 04:55:51;;;;;;;97.43;48.63;;;17.90;84.20;;;;;;4973772;28;20050;-86
2021/07/13 04:58:18;;;;;;;90.85;49.47;;;17.90;84.20;;;;;;4972510;28;20397;-86
2021/07/13 05:00:48;;;;;;;103.93;52.22;;;17.90;84.20;;;;;;4972614;28;20047;-86
2021/07/13 05:03:15;;;;;;;109.25;52.05;;;17.90;84.30;;;;;;4974131;28;20512;-84
2021/07/13 05:05:43;;;;;;;111.07;54.20;;;17.90;84.30;;;;;;4976073;28;20531;-86
2021/07/13 05:08:10;;;;;;;119.20;55.83;;;17.90;84.40;;;;;;4976322;28;20133;-87
2021/07/13 05:10:37;;;;;;;121.93;55.15;;;17.90;84.40;;;;;;4976052;28;20062;-87
2021/07/13 05:13:09;;;;;;;121.40;57.83;;;17.90;84.40;;;;;;4976182;28;20063;-86
2021/07/13 05:15:38;;;;;;;127.97;57.60;;;17.90;84.50;;;;;;4975671;28;20058;-85
2021/07/13 05:18:11;;;;;;;124.10;57.38;;;17.90;84.50;;;;;;4975703;28;20424;-86
2021/07/13 05:20:43;;;;;;;126.95;58.72;;;18.00;84.50;;;;;;4977067;28;20069;-86
2021/07/13 05:23:10;;;;;;;140.98;59.45;;;18.00;84.50;;;;;;4975791;28;20477;-88
2021/07/13 05:25:39;;;;;;;113.68;55.25;;;18.00;84.50;;;;;;4975993;28;20513;-85
2021/07/13 05:28:10;;;;;;;130.65;58.00;;;18.00;84.50;;;;;;4975700;28;20060;-86
2021/07/13 05:30:39;;;;;;;128.07;59.38;;;18.00;84.50;;;;;;4957651;28;20135;-86
2021/07/13 05:33:07;;;;;;;126.97;59.35;;;18.10;84.50;;;;;;4975238;28;20043;-87
2021/07/13 05:35:35;;;;;;;125.55;54.95;;;18.10;84.50;;;;;;4975643;28;20101;-86
2021/07/13 05:38:02;;;;;;;126.55;56.88;;;18.10;84.60;;;;;;4975636;28;20051;-86
2021/07/13 05:40:30;;;;;;;116.47;56.63;;;18.10;84.60;;;;;;4975488;28;20057;-88
2021/07/13 05:42:57;;;;;;;118.82;56.42;;;18.10;84.50;;;;;;4975454;28;20058;-86
2021/07/13 05:45:24;;;;;;;125.00;58.40;;;18.10;84.50;;;;;;4974897;28;20505;-87
2021/07/13 05:47:51;;;;;;;112.88;55.95;;;18.20;84.50;;;;;;4975541;28;20053;-86
2021/07/13 05:50:18;;;;;;;124.93;56.80;;;18.20;84.60;;;;;;4975599;28;20133;-85
2021/07/13 05:52:46;;;;;;;112.43;55.20;;;18.20;84.60;;;;;;4975529;28;20070;-86
2021/07/13 05:55:13;;;;;;;114.65;54.85;;;18.20;84.60;;;;;;4976189;28;20057;-86
2021/07/13 05:57:40;;;;;;;98.28;50.25;;;18.30;84.70;;;;;;4974790;28;20050;-86
2021/07/13 06:00:10;;;;;;;109.63;52.42;;;18.30;84.70;;;;;;4975095;28;20484;-85
2021/07/13 06:02:37;;;;;;;101.15;50.55;;;18.40;84.70;;;;;;4975300;28;20050;-86
2021/07/13 06:05:05;;;;;;;99.15;50.03;;;18.40;84.70;;;;;;4975230;28;20130;-85
2021/07/13 06:07:32;;;;;;;86.47;48.00;;;18.40;84.60;;;;;;4976387;28;20054;-85
2021/07/13 06:09:59;;;;;;;90.75;48.97;;;18.40;84.50;;;;;;4974757;28;20061;-87
2021/07/13 06:12:26;;;;;;;88.40;47.10;;;18.40;84.40;;;;;;4974781;28;20062;-87
2021/07/13 06:14:54;;;;;;;84.03;47.75;;;18.40;84.30;;;;;;4974576;28;20097;-88
2021/07/13 06:17:26;;;;;;;77.90;45.67;;;18.40;84.20;;;;;;4974991;28;20055;-86
2021/07/13 06:19:53;;;;;;;84.53;49.13;;;18.40;84.20;;;;;;4974573;28;20057;-84
2021/07/13 06:22:21;;;;;;;84.15;47.60;;;18.50;84.20;;;;;;4974861;28;20054;-87
2021/07/13 06:24:50;;;;;;;87.90;48.30;;;18.40;84.10;;;;;;4974983;28;20054;-84
2021/07/13 06:27:17;;;;;;;88.55;47.58;;;18.50;84.10;;;;;;4975657;28;20059;-86
2021/07/13 06:29:46;;;;;;;86.90;46.85;;;18.50;84.10;;;;;;4974816;28;20142;-84
2021/07/13 06:32:13;;;;;;;85.07;48.67;;;18.50;84.10;;;;;;4974512;28;20055;-87
2021/07/13 06:34:40;;;;;;;88.53;48.05;;;18.50;84.10;;;;;;4973978;28;20061;-85
2021/07/13 06:37:08;;;;;;;85.15;46.88;;;18.50;84.00;;;;;;4990588;28;20524;-85
2021/07/13 06:39:36;;;;;;;92.20;48.20;;;18.60;84.10;;;;;;4985870;28;20069;-85
2021/07/13 06:42:03;;;;;;;91.47;48.42;;;18.60;84.20;;;;;;4973995;28;20054;-87
2021/07/13 06:44:30;;;;;;;87.93;48.50;;;18.60;84.30;;;;;;4974293;28;20059;-86
2021/07/13 06:46:58;;;;;;;84.63;46.97;;;18.70;84.30;;;;;;4974401;28;20121;-85
2021/07/13 06:49:26;;;;;;;83.00;45.53;;;18.70;84.20;;;;;;4974582;28;20070;-86
2021/07/13 06:51:53;;;;;;;77.28;46.45;;;18.80;84.10;;;;;;4974471;28;20497;-87
2021/07/13 06:54:26;;;;;;;82.68;47.50;;;18.80;84.00;;;;;;4974223;28;20508;-87
2021/07/13 06:56:53;;;;;;;92.85;48.25;;;18.90;83.90;;;;;;4973780;28;20061;-88
2021/07/13 06:59:20;;;;;;;81.13;46.25;;;18.90;83.80;;;;;;4973997;28;20098;-85
2021/07/13 07:01:47;;;;;;;79.97;47.40;;;18.90;83.70;;;;;;4974190;28;20054;-86
2021/07/13 07:04:16;;;;;;;85.40;48.15;;;18.90;83.60;;;;;;4974156;28;20083;-86
2021/07/13 07:06:43;;;;;;;85.60;49.55;;;18.90;83.50;;;;;;4973753;28;20061;-86
2021/07/13 07:09:10;;;;;;;87.55;48.60;;;18.90;83.40;;;;;;4973702;28;20493;-85
2021/07/13 07:11:37;;;;;;;85.85;49.55;;;18.90;83.30;;;;;;4974945;28;20053;-84
2021/07/13 07:14:04;;;;;;;92.65;52.20;;;18.90;83.20;;;;;;4972354;28;20512;-83
2021/07/13 07:16:34;;;;;;;82.13;48.80;;;18.90;83.20;;;;;;4972003;28;20096;-87
2021/07/13 07:19:02;;;;;;;95.63;53.78;;;18.90;83.20;;;;;;4981720;28;20046;-88
2021/07/13 07:21:29;;;;;;;96.65;52.83;;;19.00;83.20;;;;;;4971213;28;20051;-86
2021/07/13 07:23:56;;;;;;;89.03;52.03;;;19.00;83.10;;;;;;4972453;28;20047;-86
2021/07/13 07:26:26;;;;;;;96.05;51.35;;;19.00;83.10;;;;;;4972831;28;20055;-85
2021/07/13 07:28:53;;;;;;;80.45;50.35;;;19.00;83.00;;;;;;4971840;28;20073;-86
2021/07/13 07:31:21;;;;;;;82.05;50.00;;;19.00;82.90;;;;;;4988327;28;20138;-85
2021/07/13 07:33:49;;;;;;;83.38;50.90;;;19.00;82.70;;;;;;4980897;28;20055;-84
2021/07/13 07:36:16;;;;;;;83.32;51.03;;;18.90;82.60;;;;;;4973110;28;20137;-86
2021/07/13 07:38:46;;;;;;;83.05;49.35;;;19.00;82.60;;;;;;4972040;28;20061;-84
2021/07/13 07:41:27;;;;;;;92.53;49.45;;;18.90;82.60;;;;;;4970001;28;20057;-85
2021/07/13 07:43:55;;;;;;;77.82;49.75;;;18.90;82.60;;;;;;4987993;28;20070;-86
2021/07/13 07:46:23;;;;;;;79.97;49.20;;;18.90;82.50;;;;;;4972314;28;20129;-86
2021/07/13 07:48:50;;;;;;;80.15;49.13;;;19.00;82.60;;;;;;4972379;28;20055;-85
2021/07/13 07:51:17;;;;;;;81.43;48.78;;;18.90;82.60;;;;;;4971825;28;20085;-88
2021/07/13 07:53:45;;;;;;;70.78;46.10;;;18.90;82.60;;;;;;4972294;28;20061;-84
2021/07/13 07:56:12;;;;;;;70.53;44.45;;;19.00;82.60;;;;;;4971830;28;20135;-87
2021/07/13 07:58:39;;;;;;;79.57;46.88;;;19.00;82.60;;;;;;4971817;28;20066;-84
2021/07/13 08:01:06;;;;;;;78.45;48.13;;;19.00;82.70;;;;;;4972050;28;20051;-85
2021/07/13 08:03:33;;;;;;;68.85;45.85;;;19.00;82.70;;;;;;4972149;28;20047;-86
2021/07/13 08:06:00;;;;;;;73.45;45.15;;;19.00;82.70;;;;;;4971446;28;20419;-85
2021/07/13 08:08:28;;;;;;;73.18;44.97;;;19.00;82.60;;;;;;4973049;28;20117;-86
2021/07/13 08:10:55;;;;;;;74.78;45.25;;;19.00;82.60;;;;;;4972095;28;20047;-85
2021/07/13 08:13:22;;;;;;;74.97;47.30;;;19.00;82.50;;;;;;4971667;28;20059;-85
2021/07/13 08:15:49;;;;;;;70.97;46.97;;;19.10;82.50;;;;;;4971843;28;20130;-86
2021/07/13 08:18:19;;;;;;;74.35;48.03;;;19.10;82.50;;;;;;4977724;28;20057;-87
2021/07/13 08:20:47;;;;;;;72.93;47.20;;;19.10;82.50;;;;;;4991054;28;20064;-86
2021/07/13 08:23:14;;;;;;;79.30;47.80;;;19.10;82.60;;;;;;4991033;28;20050;-87
2021/07/13 08:25:41;;;;;;;77.38;47.80;;;19.10;82.70;;;;;;4991471;28;20556;-87
2021/07/13 08:28:08;;;;;;;70.70;45.90;;;19.10;82.70;;;;;;4991916;28;20405;-84
2021/07/13 08:30:35;;;;;;;75.25;46.35;;;19.10;82.70;;;;;;4973254;28;20129;-86
2021/07/13 08:33:02;;;;;;;71.43;45.50;;;19.10;82.70;;;;;;4972183;28;20115;-87
2021/07/13 08:35:30;;;;;;;73.10;45.58;;;19.10;82.60;;;;;;4971438;28;20096;-85
2021/07/13 08:37:57;;;;;;;71.40;46.88;;;19.20;82.60;;;;;;4971537;28;20061;-87
2021/07/13 08:40:25;;;;;;;67.68;45.50;;;19.20;82.50;;;;;;4975451;28;20050;-86
2021/07/13 08:42:55;;;;;;;69.68;45.08;;;19.20;82.40;;;;;;4975021;28;20250;-85
2021/07/13 08:45:24;;;;;;;69.20;45.03;;;19.10;82.40;;;;;;4975326;28;20058;-87
2021/07/13 08:47:52;;;;;;;67.32;44.33;;;19.10;82.50;;;;;;4975653;28;20065;-86
2021/07/13 08:50:21;;;;;;;66.97;46.30;;;19.20;82.60;;;;;;4975134;28;20054;-88
2021/07/13 08:52:49;;;;;;;69.97;44.55;;;19.20;82.60;;;;;;4975139;28;20085;-86
2021/07/13 08:55:16;;;;;;;72.32;45.35;;;19.20;82.50;;;;;;4975283;28;20131;-85
2021/07/13 08:57:44;;;;;;;65.75;44.08;;;19.20;82.40;;;;;;4974839;28;20154;-86
2021/07/13 09:00:18;;;;;;;62.92;42.58;;;19.20;82.40;;;;;;4974945;28;20583;-86
2021/07/13 09:03:19;;;;;;;67.70;44.40;;;19.20;82.50;;;;;;4975147;28;20065;-86
2021/07/13 09:05:57;;;;;;;66.07;44.13;;;19.30;82.60;;;;;;4974455;28;20051;-88
2021/07/13 09:08:28;;;;;;;70.45;45.20;;;19.30;82.70;;;;;;4975234;28;20055;-84
2021/07/13 09:11:13;;;;;;;66.40;44.58;;;19.30;82.70;;;;;;4975370;28;20133;-86
2021/07/13 09:13:46;;;;;;;64.18;45.63;;;19.30;82.60;;;;;;4974873;28;20058;-85
2021/07/13 09:16:20;;;;;;;67.25;46.03;;;19.30;82.70;;;;;;4991040;28;20466;-86
2021/07/13 09:18:52;;;;;;;69.10;46.15;;;19.40;82.80;;;;;;4976265;28;20113;-87
2021/07/13 09:21:32;;;;;;;72.57;46.35;;;19.40;82.80;;;;;;4974145;28;20061;-85
2021/07/13 09:24:14;;;;;;;68.32;44.85;;;19.50;82.70;;;;;;4974825;28;20049;-87
2021/07/13 09:26:48;;;;;;;58.72;43.50;;;19.50;82.70;;;;;;4974304;28;20051;-86
2021/07/13 09:29:31;;;;;;;60.10;41.20;;;19.60;82.80;;;;;;4974916;28;20539;-86
2021/07/13 09:32:31;;;;;;;59.05;42.13;;;19.60;82.60;;;;;;4974522;28;20050;-85
2021/07/13 09:35:04;;;;;;;52.80;39.05;;;19.60;82.40;;;;;;4974050;28;20054;-87
2021/07/13 09:37:38;;;;;;;59.70;42.20;;;19.70;82.30;;;;;;4974654;28;20517;-85
2021/07/13 09:40:11;;;;;;;55.60;40.78;;;19.70;82.10;;;;;;4974504;28;20065;-86
2021/07/13 09:42:52;;;;;;;56.15;40.70;;;19.70;81.90;;;;;;4974932;28;20142;-84
2021/07/13 09:45:24;;;;;;;53.85;42.20;;;19.70;81.70;;;;;;4975443;28;20057;-86
2021/07/13 09:47:55;;;;;;;58.50;41.88;;;19.70;81.60;;;;;;4975355;28;20042;-87
2021/07/13 09:50:35;;;;;;;61.38;42.08;;;19.70;81.60;;;;;;4973105;28;20046;-85
2021/07/13 09:53:04;;;;;;;53.58;40.88;;;19.70;81.60;;;;;;4974148;28;20056;-88
2021/07/13 09:55:32;;;;;;;55.72;40.15;;;19.70;81.50;;;;;;4973936;28;20114;-86
2021/07/13 09:58:08;;;;;;;51.58;39.47;;;19.70;81.40;;;;;;4973873;28;20138;-87
2021/07/13 10:00:35;;;;;;;53.53;40.65;;;19.70;81.40;;;;;;4973782;28;20050;-87
2021/07/13 10:03:08;;;;;;;59.00;39.17;;;19.60;81.40;;;;;;4973916;28;20061;-86
2021/07/13 10:05:37;;;;;;;55.13;39.92;;;19.60;81.50;;;;;;4973948;28;20220;-85
2021/07/13 10:08:06;;;;;;;51.25;38.75;;;19.60;81.60;;;;;;4974366;28;20141;-87
2021/07/13 10:10:38;;;;;;;55.88;37.22;;;19.50;81.70;;;;;;4973905;28;20065;-86
2021/07/13 10:13:06;;;;;;;55.90;40.10;;;19.50;81.80;;;;;;4973444;28;20050;-86
2021/07/13 10:15:35;;;;;;;53.88;37.65;;;19.50;81.90;;;;;;4973807;28;20050;-87
2021/07/13 10:18:06;;;;;;;46.83;35.15;;;19.50;82.10;;;;;;4973055;28;20497;-87
2021/07/13 10:20:38;;;;;;;52.80;35.72;;;19.50;82.20;;;;;;4973570;28;20057;-85
2021/07/13 10:23:07;;;;;;;52.28;36.70;;;19.50;82.20;;;;;;4973819;28;20050;-88
2021/07/13 10:25:38;;;;;;;54.42;39.05;;;19.50;82.30;;;;;;4973693;28;20567;-87
2021/07/13 10:28:06;;;;;;;54.65;39.58;;;19.50;82.30;;;;;;4973258;28;20093;-88
2021/07/13 10:30:37;;;;;;;57.45;38.42;;;19.60;82.40;;;;;;4973342;28;20057;-87
2021/07/13 10:33:31;;;;;;;52.83;38.08;;;19.60;82.50;;;;;;4973625;28;20169;-86
2021/07/13 10:36:17;;;;;;;;;;;19.60;82.70;;;;;;4973510;28;20512;-85
2021/07/13 10:38:44;;;;;;;53.97;37.38;;;19.60;82.90;;;;;;4973337;28;19929;-85
2021/07/13 10:41:12;;;;;;;50.13;35.13;;;19.60;82.90;;;;;;4972933;28;20043;-87
2021/07/13 10:43:51;;;;;;;52.30;34.88;;;19.70;83.00;;;;;;4973457;28;20050;-86
2021/07/13 10:46:18;;;;;;;47.22;34.45;;;19.70;83.00;;;;;;4974472;28;20591;-87
2021/07/13 10:48:46;;;;;;;54.65;36.95;;;19.70;83.00;;;;;;4972842;28;20512;-87
2021/07/13 10:51:13;;;;;;;49.78;36.00;;;19.70;83.00;;;;;;4973388;28;20057;-86
2021/07/13 10:53:42;;;;;;;50.53;36.65;;;19.80;83.00;;;;;;4973450;28;20051;-88
2021/07/13 10:56:30;;;;;;;49.47;35.92;;;19.80;83.00;;;;;;4972242;28;20063;-86
2021/07/13 10:59:17;;;;;;;49.42;35.28;;;19.90;82.90;;;;;;4973266;28;20066;-89
2021/07/13 11:02:10;;;;;;;46.38;33.60;;;19.90;82.70;;;;;;4972839;28;20416;-90
2021/07/13 11:04:55;;;;;;;48.63;32.42;;;19.90;82.40;;;;;;4973360;28;20086;-85
2021/07/13 11:07:55;;;;;;;43.55;32.03;;;19.90;82.10;;;;;;4972937;28;20062;-85
2021/07/13 11:10:24;;;;;;;50.80;34.15;;;19.90;82.00;;;;;;4917786;29;20055;-87
2021/07/13 11:12:54;;;;;;;50.90;33.20;;;19.90;82.00;;;;;;4933440;29;20052;-87
2021/07/13 11:15:31;;;;;;;40.92;29.90;;;19.90;82.00;;;;;;4899531;29;20099;-88
2021/07/13 11:18:02;;;;;;;39.17;28.92;;;19.90;82.00;;;;;;4925015;29;20080;-88
2021/07/13 11:20:50;;;;;;;39.30;29.63;;;19.90;82.10;;;;;;4927103;29;20166;-84
2021/07/13 11:23:35;;;;;;;41.40;30.90;;;19.90;82.10;;;;;;4933030;29;20498;-84
2021/07/13 11:26:07;;;;;;;40.13;29.90;;;19.90;82.20;;;;;;4932908;29;20062;-84
2021/07/13 11:28:37;;;;;;;;;;;19.90;82.40;;;;;;4933095;29;20155;-85
2021/07/13 11:31:08;;;;;;;40.90;29.10;;;20.00;82.50;;;;;;4932910;29;19933;-87
2021/07/13 11:33:36;;;;;;;49.33;31.05;;;20.00;82.60;;;;;;4932217;29;20067;-83
2021/07/13 11:36:04;;;;;;;42.28;30.45;;;20.00;82.80;;;;;;4932238;29;20091;-86
2021/07/13 11:38:34;;;;;;;45.53;31.02;;;20.10;83.00;;;;;;4916435;29;20051;-85
2021/07/13 11:41:12;;;;;;;41.90;30.88;;;20.20;83.00;;;;;;4916988;29;20131;-86
2021/07/13 11:43:40;;;;;;;64.47;31.27;;;20.20;82.80;;;;;;4917288;29;20126;-88
2021/07/13 11:46:19;;;;;;;46.15;31.65;;;20.30;82.50;;;;;;4945207;28;20093;-88
2021/07/13 11:49:04;;;;;;;39.97;29.45;;;20.30;82.40;;;;;;4971932;28;20054;-86
2021/07/13 11:51:58;;;;;;;39.90;29.30;;;20.30;82.40;;;;;;4972326;28;20055;-85
2021/07/13 11:54:34;;;;;;;34.60;26.88;;;20.30;82.30;;;;;;4972697;28;20469;-86
2021/07/13 11:57:19;;;;;;;41.90;27.77;;;20.30;82.10;;;;;;4972219;28;20059;-88
2021/07/13 11:59:47;;;;;;;34.15;25.67;;;20.20;82.10;;;;;;4952925;29;20081;-86
2021/07/13 12:02:15;;;;;;;36.42;26.08;;;20.20;82.00;;;;;;4952557;28;20047;-86
2021/07/13 12:04:45;;;;;;;31.50;24.77;;;20.20;82.00;;;;;;4953250;28;20465;-88
2021/07/13 12:07:16;;;;;;;34.95;25.80;;;20.20;82.00;;;;;;4952652;28;20130;-87
2021/07/13 12:09:43;;;;;;;33.80;23.52;;;20.20;81.90;;;;;;4953162;28;20062;-89
2021/07/13 12:12:13;;;;;;;32.97;24.63;;;20.20;81.60;;;;;;4952988;28;20083;-85
2021/07/13 12:14:51;;;;;;;35.83;23.35;;;20.20;81.70;;;;;;4969585;28;20170;-87
2021/07/13 12:17:24;;;;;;;27.92;22.88;;;20.20;82.00;;;;;;4989133;28;20518;-90
2021/07/13 12:19:54;;;;;;;30.13;21.02;;;20.30;82.00;;;;;;4976543;28;20420;-85
2021/07/13 12:22:23;;;;;;;22.17;18.50;;;20.40;82.20;;;;;;4975778;28;20055;-85
2021/07/13 12:24:53;;;;;;;25.25;18.77;;;20.40;82.00;;;;;;4975631;28;20154;-86
2021/07/13 12:27:21;;;;;;;28.33;18.90;;;20.40;81.60;;;;;;4975098;28;20077;-87
2021/07/13 12:29:51;;;;;;;28.50;16.95;;;20.40;81.50;;;;;;4975632;28;20059;-85
2021/07/13 12:32:37;;;;;;;23.60;17.25;;;20.40;81.40;;;;;;4975285;28;20492;-86
2021/07/13 12:35:09;;;;;;;22.75;17.17;;;20.50;81.50;;;;;;4975867;28;20059;-84
2021/07/13 12:37:39;;;;;;;23.17;17.00;;;20.50;81.50;;;;;;4975494;28;20526;-87
2021/07/13 12:40:12;;;;;;;21.98;16.67;;;20.40;81.30;;;;;;4975162;28;20053;-88
2021/07/13 12:42:46;;;;;;;22.20;15.48;;;20.50;81.10;;;;;;4975548;28;20158;-85